<?xml version="1.0" encoding="UTF-8" standalone="no" ?>
<gpx xmlns="http://www.topografix.com/GPX/1/1" xmlns:xsi="http://www.w3.org/2001/XMLSchema-instance" xsi:schemaLocation="http://www.topografix.com/GPX/1/1 http://www.topografix.com/GPX/1/1/gpx.xsd" version="1.1" creator="VisuGPX - https://www.visugpx.com">
  <metadata>
    <name>Col des Moulinés et Mt Brussière depuis PontCougne</name>
    <desc><![CDATA[adaptation de https://www.visugpx.com/txIQhJEXzR
]]></desc>
  </metadata>
  <trk>
    <name><![CDATA[13520650-Col des Moulinés et Mt Brussière depuis PontCougne]]></name>
    <trkseg>
      <trkpt lat="44.10495" lon="6.98686">
        <ele>1444</ele>
        <time>2021-08-08T16:03:28Z</time>
      </trkpt>
      <trkpt lat="44.10497" lon="6.98689">
        <ele>1444</ele>
        <time>2021-08-08T16:03:30Z</time>
      </trkpt>
      <trkpt lat="44.1056" lon="6.98709">
        <ele>1451</ele>
        <time>2021-08-08T16:04:22Z</time>
      </trkpt>
      <trkpt lat="44.10618" lon="6.98723">
        <ele>1456</ele>
        <time>2021-08-08T16:05:09Z</time>
      </trkpt>
      <trkpt lat="44.10661" lon="6.98729">
        <ele>1459</ele>
        <time>2021-08-08T16:05:44Z</time>
      </trkpt>
      <trkpt lat="44.10692" lon="6.98725">
        <ele>1464</ele>
        <time>2021-08-08T16:06:09Z</time>
      </trkpt>
      <trkpt lat="44.10713" lon="6.98735">
        <ele>1465</ele>
        <time>2021-08-08T16:06:27Z</time>
      </trkpt>
      <trkpt lat="44.10739" lon="6.98738">
        <ele>1468</ele>
        <time>2021-08-08T16:06:47Z</time>
      </trkpt>
      <trkpt lat="44.10758" lon="6.98746">
        <ele>1469</ele>
        <time>2021-08-08T16:07:03Z</time>
      </trkpt>
      <trkpt lat="44.10779" lon="6.98747">
        <ele>1471</ele>
        <time>2021-08-08T16:07:20Z</time>
      </trkpt>
      <trkpt lat="44.10802" lon="6.98764">
        <ele>1474</ele>
        <time>2021-08-08T16:07:41Z</time>
      </trkpt>
      <trkpt lat="44.10814" lon="6.98764">
        <ele>1475</ele>
        <time>2021-08-08T16:07:51Z</time>
      </trkpt>
      <trkpt lat="44.10858" lon="6.98792">
        <ele>1479</ele>
        <time>2021-08-08T16:08:29Z</time>
      </trkpt>
      <trkpt lat="44.10938" lon="6.98822">
        <ele>1485</ele>
        <time>2021-08-08T16:09:36Z</time>
      </trkpt>
      <trkpt lat="44.10956" lon="6.98828">
        <ele>1487</ele>
        <time>2021-08-08T16:09:50Z</time>
      </trkpt>
      <trkpt lat="44.10978" lon="6.98827">
        <ele>1490</ele>
        <time>2021-08-08T16:10:08Z</time>
      </trkpt>
      <trkpt lat="44.11011" lon="6.98833">
        <ele>1493</ele>
        <time>2021-08-08T16:10:35Z</time>
      </trkpt>
      <trkpt lat="44.11026" lon="6.98838">
        <ele>1494</ele>
        <time>2021-08-08T16:10:47Z</time>
      </trkpt>
      <trkpt lat="44.11061" lon="6.9887">
        <ele>1499</ele>
        <time>2021-08-08T16:11:21Z</time>
      </trkpt>
      <trkpt lat="44.11074" lon="6.98872">
        <ele>1499</ele>
        <time>2021-08-08T16:11:31Z</time>
      </trkpt>
      <trkpt lat="44.11121" lon="6.98861">
        <ele>1503</ele>
        <time>2021-08-08T16:12:09Z</time>
      </trkpt>
      <trkpt lat="44.11136" lon="6.98844">
        <ele>1503</ele>
        <time>2021-08-08T16:12:25Z</time>
      </trkpt>
      <trkpt lat="44.11156" lon="6.98833">
        <ele>1503</ele>
        <time>2021-08-08T16:12:42Z</time>
      </trkpt>
      <trkpt lat="44.11176" lon="6.98808">
        <ele>1508</ele>
        <time>2021-08-08T16:13:03Z</time>
      </trkpt>
      <trkpt lat="44.11218" lon="6.98767">
        <ele>1514</ele>
        <time>2021-08-08T16:13:45Z</time>
      </trkpt>
      <trkpt lat="44.11254" lon="6.98773">
        <ele>1516</ele>
        <time>2021-08-08T16:14:14Z</time>
      </trkpt>
      <trkpt lat="44.11263" lon="6.98773">
        <ele>1517</ele>
        <time>2021-08-08T16:14:21Z</time>
      </trkpt>
      <trkpt lat="44.11313" lon="6.98803">
        <ele>1522</ele>
        <time>2021-08-08T16:15:04Z</time>
      </trkpt>
      <trkpt lat="44.11378" lon="6.9887">
        <ele>1532</ele>
        <time>2021-08-08T16:16:09Z</time>
      </trkpt>
      <trkpt lat="44.11418" lon="6.98897">
        <ele>1533</ele>
        <time>2021-08-08T16:16:45Z</time>
      </trkpt>
      <trkpt lat="44.11426" lon="6.98899">
        <ele>1534</ele>
        <time>2021-08-08T16:16:51Z</time>
      </trkpt>
      <trkpt lat="44.11429" lon="6.98906">
        <ele>1534</ele>
        <time>2021-08-08T16:16:56Z</time>
      </trkpt>
      <trkpt lat="44.11447" lon="6.98919">
        <ele>1537</ele>
        <time>2021-08-08T16:17:12Z</time>
      </trkpt>
      <trkpt lat="44.11471" lon="6.98948">
        <ele>1542</ele>
        <time>2021-08-08T16:17:38Z</time>
      </trkpt>
      <trkpt lat="44.11508" lon="6.98997">
        <ele>1543</ele>
        <time>2021-08-08T16:18:18Z</time>
      </trkpt>
      <trkpt lat="44.11528" lon="6.9903">
        <ele>1550</ele>
        <time>2021-08-08T16:18:43Z</time>
      </trkpt>
      <trkpt lat="44.1156" lon="6.9906">
        <ele>1555</ele>
        <time>2021-08-08T16:19:14Z</time>
      </trkpt>
      <trkpt lat="44.1158" lon="6.99075">
        <ele>1555</ele>
        <time>2021-08-08T16:19:32Z</time>
      </trkpt>
      <trkpt lat="44.11594" lon="6.99065">
        <ele>1557</ele>
        <time>2021-08-08T16:19:45Z</time>
      </trkpt>
      <trkpt lat="44.11605" lon="6.99069">
        <ele>1559</ele>
        <time>2021-08-08T16:19:54Z</time>
      </trkpt>
      <trkpt lat="44.11608" lon="6.99079">
        <ele>1558</ele>
        <time>2021-08-08T16:20:00Z</time>
      </trkpt>
      <trkpt lat="44.11618" lon="6.99091">
        <ele>1560</ele>
        <time>2021-08-08T16:20:11Z</time>
      </trkpt>
      <trkpt lat="44.11631" lon="6.99104">
        <ele>1562</ele>
        <time>2021-08-08T16:20:24Z</time>
      </trkpt>
      <trkpt lat="44.11638" lon="6.99114">
        <ele>1563</ele>
        <time>2021-08-08T16:20:32Z</time>
      </trkpt>
      <trkpt lat="44.11682" lon="6.99145">
        <ele>1567</ele>
        <time>2021-08-08T16:21:11Z</time>
      </trkpt>
      <trkpt lat="44.11697" lon="6.99153">
        <ele>1570</ele>
        <time>2021-08-08T16:21:24Z</time>
      </trkpt>
      <trkpt lat="44.11707" lon="6.99166">
        <ele>1570</ele>
        <time>2021-08-08T16:21:35Z</time>
      </trkpt>
      <trkpt lat="44.11721" lon="6.99173">
        <ele>1573</ele>
        <time>2021-08-08T16:21:47Z</time>
      </trkpt>
      <trkpt lat="44.11774" lon="6.99187">
        <ele>1586</ele>
        <time>2021-08-08T16:22:30Z</time>
      </trkpt>
      <trkpt lat="44.11777" lon="6.9919">
        <ele>1587</ele>
        <time>2021-08-08T16:22:33Z</time>
      </trkpt>
      <trkpt lat="44.11815" lon="6.99196">
        <ele>1598</ele>
        <time>2021-08-08T16:23:04Z</time>
      </trkpt>
      <trkpt lat="44.11823" lon="6.99205">
        <ele>1598</ele>
        <time>2021-08-08T16:23:12Z</time>
      </trkpt>
      <trkpt lat="44.1185" lon="6.99219">
        <ele>1600</ele>
        <time>2021-08-08T16:23:35Z</time>
      </trkpt>
      <trkpt lat="44.11858" lon="6.99214">
        <ele>1603</ele>
        <time>2021-08-08T16:23:42Z</time>
      </trkpt>
      <trkpt lat="44.11863" lon="6.99215">
        <ele>1604</ele>
        <time>2021-08-08T16:23:46Z</time>
      </trkpt>
      <trkpt lat="44.11873" lon="6.99206">
        <ele>1608</ele>
        <time>2021-08-08T16:23:56Z</time>
      </trkpt>
      <trkpt lat="44.11903" lon="6.99199">
        <ele>1614</ele>
        <time>2021-08-08T16:24:20Z</time>
      </trkpt>
      <trkpt lat="44.11932" lon="6.99172">
        <ele>1625</ele>
        <time>2021-08-08T16:24:48Z</time>
      </trkpt>
      <trkpt lat="44.11993" lon="6.9914">
        <ele>1649</ele>
        <time>2021-08-08T16:25:40Z</time>
      </trkpt>
      <trkpt lat="44.12043" lon="6.99116">
        <ele>1666</ele>
        <time>2021-08-08T16:26:22Z</time>
      </trkpt>
      <trkpt lat="44.1205" lon="6.99137">
        <ele>1664</ele>
        <time>2021-08-08T16:26:36Z</time>
      </trkpt>
      <trkpt lat="44.12062" lon="6.99147">
        <ele>1666</ele>
        <time>2021-08-08T16:26:47Z</time>
      </trkpt>
      <trkpt lat="44.12106" lon="6.99162">
        <ele>1678</ele>
        <time>2021-08-08T16:27:23Z</time>
      </trkpt>
      <trkpt lat="44.12109" lon="6.99168">
        <ele>1678</ele>
        <time>2021-08-08T16:27:27Z</time>
      </trkpt>
      <trkpt lat="44.1212" lon="6.99174">
        <ele>1681</ele>
        <time>2021-08-08T16:27:37Z</time>
      </trkpt>
      <trkpt lat="44.12152" lon="6.99207">
        <ele>1685</ele>
        <time>2021-08-08T16:28:09Z</time>
      </trkpt>
      <trkpt lat="44.12176" lon="6.99195">
        <ele>1696</ele>
        <time>2021-08-08T16:28:29Z</time>
      </trkpt>
      <trkpt lat="44.1218" lon="6.99207">
        <ele>1695</ele>
        <time>2021-08-08T16:28:37Z</time>
      </trkpt>
      <trkpt lat="44.12197" lon="6.99216">
        <ele>1700</ele>
        <time>2021-08-08T16:28:51Z</time>
      </trkpt>
      <trkpt lat="44.12196" lon="6.99252">
        <ele>1692</ele>
        <time>2021-08-08T16:29:12Z</time>
      </trkpt>
      <trkpt lat="44.12222" lon="6.99238">
        <ele>1705</ele>
        <time>2021-08-08T16:29:34Z</time>
      </trkpt>
      <trkpt lat="44.12228" lon="6.9924">
        <ele>1707</ele>
        <time>2021-08-08T16:29:39Z</time>
      </trkpt>
      <trkpt lat="44.12244" lon="6.99261">
        <ele>1709</ele>
        <time>2021-08-08T16:29:57Z</time>
      </trkpt>
      <trkpt lat="44.1226" lon="6.99271">
        <ele>1713</ele>
        <time>2021-08-08T16:30:11Z</time>
      </trkpt>
      <trkpt lat="44.12268" lon="6.99269">
        <ele>1718</ele>
        <time>2021-08-08T16:30:17Z</time>
      </trkpt>
      <trkpt lat="44.12286" lon="6.99281">
        <ele>1723</ele>
        <time>2021-08-08T16:30:33Z</time>
      </trkpt>
      <trkpt lat="44.1234" lon="6.99331">
        <ele>1732</ele>
        <time>2021-08-08T16:31:25Z</time>
      </trkpt>
      <trkpt lat="44.12395" lon="6.9936">
        <ele>1743</ele>
        <time>2021-08-08T16:32:12Z</time>
      </trkpt>
      <trkpt lat="44.12416" lon="6.99362">
        <ele>1750</ele>
        <time>2021-08-08T16:32:29Z</time>
      </trkpt>
      <trkpt lat="44.12438" lon="6.99381">
        <ele>1753</ele>
        <time>2021-08-08T16:32:50Z</time>
      </trkpt>
      <trkpt lat="44.12453" lon="6.99391">
        <ele>1755</ele>
        <time>2021-08-08T16:33:03Z</time>
      </trkpt>
      <trkpt lat="44.12464" lon="6.99393">
        <ele>1759</ele>
        <time>2021-08-08T16:33:12Z</time>
      </trkpt>
      <trkpt lat="44.12468" lon="6.99407">
        <ele>1756</ele>
        <time>2021-08-08T16:33:21Z</time>
      </trkpt>
      <trkpt lat="44.12482" lon="6.99415">
        <ele>1759</ele>
        <time>2021-08-08T16:33:33Z</time>
      </trkpt>
      <trkpt lat="44.12506" lon="6.9942">
        <ele>1766</ele>
        <time>2021-08-08T16:33:52Z</time>
      </trkpt>
      <trkpt lat="44.12567" lon="6.99415">
        <ele>1784</ele>
        <time>2021-08-08T16:34:41Z</time>
      </trkpt>
      <trkpt lat="44.12577" lon="6.9942">
        <ele>1786</ele>
        <time>2021-08-08T16:34:50Z</time>
      </trkpt>
      <trkpt lat="44.12588" lon="6.99422">
        <ele>1789</ele>
        <time>2021-08-08T16:34:59Z</time>
      </trkpt>
      <trkpt lat="44.12597" lon="6.99429">
        <ele>1792</ele>
        <time>2021-08-08T16:35:07Z</time>
      </trkpt>
      <trkpt lat="44.1261" lon="6.99444">
        <ele>1795</ele>
        <time>2021-08-08T16:35:20Z</time>
      </trkpt>
      <trkpt lat="44.12635" lon="6.99448">
        <ele>1801</ele>
        <time>2021-08-08T16:35:41Z</time>
      </trkpt>
      <trkpt lat="44.12647" lon="6.99454">
        <ele>1804</ele>
        <time>2021-08-08T16:35:51Z</time>
      </trkpt>
      <trkpt lat="44.12662" lon="6.99478">
        <ele>1808</ele>
        <time>2021-08-08T16:36:09Z</time>
      </trkpt>
      <trkpt lat="44.12687" lon="6.99484">
        <ele>1816</ele>
        <time>2021-08-08T16:36:29Z</time>
      </trkpt>
      <trkpt lat="44.12693" lon="6.99484">
        <ele>1818</ele>
        <time>2021-08-08T16:36:34Z</time>
      </trkpt>
      <trkpt lat="44.12693" lon="6.99475">
        <ele>1818</ele>
        <time>2021-08-08T16:36:39Z</time>
      </trkpt>
      <trkpt lat="44.12687" lon="6.9945">
        <ele>1817</ele>
        <time>2021-08-08T16:36:55Z</time>
      </trkpt>
      <trkpt lat="44.12679" lon="6.99428">
        <ele>1815</ele>
        <time>2021-08-08T16:37:09Z</time>
      </trkpt>
      <trkpt lat="44.12663" lon="6.99391">
        <ele>1818</ele>
        <time>2021-08-08T16:37:34Z</time>
      </trkpt>
      <trkpt lat="44.12663" lon="6.99387">
        <ele>1819</ele>
        <time>2021-08-08T16:37:36Z</time>
      </trkpt>
      <trkpt lat="44.12681" lon="6.99395">
        <ele>1823</ele>
        <time>2021-08-08T16:37:51Z</time>
      </trkpt>
      <trkpt lat="44.12776" lon="6.99424">
        <ele>1847</ele>
        <time>2021-08-08T16:39:09Z</time>
      </trkpt>
      <trkpt lat="44.12782" lon="6.99432">
        <ele>1848</ele>
        <time>2021-08-08T16:39:15Z</time>
      </trkpt>
      <trkpt lat="44.1279" lon="6.99437">
        <ele>1851</ele>
        <time>2021-08-08T16:39:22Z</time>
      </trkpt>
      <trkpt lat="44.12803" lon="6.99433">
        <ele>1854</ele>
        <time>2021-08-08T16:39:33Z</time>
      </trkpt>
      <trkpt lat="44.12819" lon="6.99438">
        <ele>1859</ele>
        <time>2021-08-08T16:39:46Z</time>
      </trkpt>
      <trkpt lat="44.12833" lon="6.99437">
        <ele>1863</ele>
        <time>2021-08-08T16:39:57Z</time>
      </trkpt>
      <trkpt lat="44.12842" lon="6.99435">
        <ele>1865</ele>
        <time>2021-08-08T16:40:05Z</time>
      </trkpt>
      <trkpt lat="44.12844" lon="6.99433">
        <ele>1866</ele>
        <time>2021-08-08T16:40:07Z</time>
      </trkpt>
      <trkpt lat="44.12835" lon="6.99415">
        <ele>1862</ele>
        <time>2021-08-08T16:40:19Z</time>
      </trkpt>
      <trkpt lat="44.12823" lon="6.99397">
        <ele>1864</ele>
        <time>2021-08-08T16:40:33Z</time>
      </trkpt>
      <trkpt lat="44.12823" lon="6.9939">
        <ele>1866</ele>
        <time>2021-08-08T16:40:38Z</time>
      </trkpt>
      <trkpt lat="44.12903" lon="6.99387">
        <ele>1887</ele>
        <time>2021-08-08T16:41:42Z</time>
      </trkpt>
      <trkpt lat="44.12948" lon="6.99383">
        <ele>1898</ele>
        <time>2021-08-08T16:42:18Z</time>
      </trkpt>
      <trkpt lat="44.12965" lon="6.99378">
        <ele>1902</ele>
        <time>2021-08-08T16:42:32Z</time>
      </trkpt>
      <trkpt lat="44.12969" lon="6.9938">
        <ele>1903</ele>
        <time>2021-08-08T16:42:35Z</time>
      </trkpt>
      <trkpt lat="44.1297" lon="6.99378">
        <ele>1903</ele>
        <time>2021-08-08T16:42:36Z</time>
      </trkpt>
      <trkpt lat="44.1297" lon="6.9937">
        <ele>1904</ele>
        <time>2021-08-08T16:42:41Z</time>
      </trkpt>
      <trkpt lat="44.12961" lon="6.99365">
        <ele>1903</ele>
        <time>2021-08-08T16:42:49Z</time>
      </trkpt>
      <trkpt lat="44.12923" lon="6.99336">
        <ele>1901</ele>
        <time>2021-08-08T16:43:23Z</time>
      </trkpt>
      <trkpt lat="44.12913" lon="6.99324">
        <ele>1904</ele>
        <time>2021-08-08T16:43:34Z</time>
      </trkpt>
      <trkpt lat="44.12911" lon="6.99324">
        <ele>1903</ele>
        <time>2021-08-08T16:43:36Z</time>
      </trkpt>
      <trkpt lat="44.129" lon="6.99315">
        <ele>1904</ele>
        <time>2021-08-08T16:43:46Z</time>
      </trkpt>
      <trkpt lat="44.12895" lon="6.99309">
        <ele>1906</ele>
        <time>2021-08-08T16:43:51Z</time>
      </trkpt>
      <trkpt lat="44.12895" lon="6.99306">
        <ele>1907</ele>
        <time>2021-08-08T16:43:53Z</time>
      </trkpt>
      <trkpt lat="44.12911" lon="6.99308">
        <ele>1909</ele>
        <time>2021-08-08T16:44:06Z</time>
      </trkpt>
      <trkpt lat="44.12918" lon="6.99303">
        <ele>1912</ele>
        <time>2021-08-08T16:44:12Z</time>
      </trkpt>
      <trkpt lat="44.12931" lon="6.99306">
        <ele>1913</ele>
        <time>2021-08-08T16:44:23Z</time>
      </trkpt>
      <trkpt lat="44.12953" lon="6.99307">
        <ele>1916</ele>
        <time>2021-08-08T16:44:40Z</time>
      </trkpt>
      <trkpt lat="44.12996" lon="6.99294">
        <ele>1926</ele>
        <time>2021-08-08T16:45:15Z</time>
      </trkpt>
      <trkpt lat="44.13017" lon="6.99273">
        <ele>1938</ele>
        <time>2021-08-08T16:45:36Z</time>
      </trkpt>
      <trkpt lat="44.13032" lon="6.9927">
        <ele>1944</ele>
        <time>2021-08-08T16:45:48Z</time>
      </trkpt>
      <trkpt lat="44.13065" lon="6.9931">
        <ele>1944</ele>
        <time>2021-08-08T16:46:23Z</time>
      </trkpt>
      <trkpt lat="44.13077" lon="6.99319">
        <ele>1946</ele>
        <time>2021-08-08T16:46:34Z</time>
      </trkpt>
      <trkpt lat="44.13085" lon="6.99329">
        <ele>1947</ele>
        <time>2021-08-08T16:46:43Z</time>
      </trkpt>
      <trkpt lat="44.13117" lon="6.99348">
        <ele>1955</ele>
        <time>2021-08-08T16:47:11Z</time>
      </trkpt>
      <trkpt lat="44.13136" lon="6.99352">
        <ele>1961</ele>
        <time>2021-08-08T16:47:26Z</time>
      </trkpt>
      <trkpt lat="44.13148" lon="6.99359">
        <ele>1964</ele>
        <time>2021-08-08T16:47:36Z</time>
      </trkpt>
      <trkpt lat="44.13162" lon="6.99372">
        <ele>1967</ele>
        <time>2021-08-08T16:47:50Z</time>
      </trkpt>
      <trkpt lat="44.13172" lon="6.99376">
        <ele>1968</ele>
        <time>2021-08-08T16:47:58Z</time>
      </trkpt>
      <trkpt lat="44.13177" lon="6.99383">
        <ele>1967</ele>
        <time>2021-08-08T16:48:04Z</time>
      </trkpt>
      <trkpt lat="44.132" lon="6.994">
        <ele>1966</ele>
        <time>2021-08-08T16:48:25Z</time>
      </trkpt>
      <trkpt lat="44.13207" lon="6.994">
        <ele>1967</ele>
        <time>2021-08-08T16:48:30Z</time>
      </trkpt>
      <trkpt lat="44.13224" lon="6.99417">
        <ele>1966</ele>
        <time>2021-08-08T16:48:47Z</time>
      </trkpt>
      <trkpt lat="44.13217" lon="6.99472">
        <ele>1962</ele>
        <time>2021-08-08T16:49:19Z</time>
      </trkpt>
      <trkpt lat="44.13209" lon="6.99497">
        <ele>1962</ele>
        <time>2021-08-08T16:49:35Z</time>
      </trkpt>
      <trkpt lat="44.13192" lon="6.9953">
        <ele>1962</ele>
        <time>2021-08-08T16:49:58Z</time>
      </trkpt>
      <trkpt lat="44.13179" lon="6.99551">
        <ele>1965</ele>
        <time>2021-08-08T16:50:14Z</time>
      </trkpt>
      <trkpt lat="44.1317" lon="6.99572">
        <ele>1967</ele>
        <time>2021-08-08T16:50:28Z</time>
      </trkpt>
      <trkpt lat="44.13156" lon="6.99598">
        <ele>1967</ele>
        <time>2021-08-08T16:50:47Z</time>
      </trkpt>
      <trkpt lat="44.13139" lon="6.99623">
        <ele>1967</ele>
        <time>2021-08-08T16:51:07Z</time>
      </trkpt>
      <trkpt lat="44.13112" lon="6.99641">
        <ele>1969</ele>
        <time>2021-08-08T16:51:31Z</time>
      </trkpt>
      <trkpt lat="44.13097" lon="6.99645">
        <ele>1970</ele>
        <time>2021-08-08T16:51:43Z</time>
      </trkpt>
      <trkpt lat="44.13086" lon="6.99643">
        <ele>1970</ele>
        <time>2021-08-08T16:51:52Z</time>
      </trkpt>
      <trkpt lat="44.13066" lon="6.9965">
        <ele>1971</ele>
        <time>2021-08-08T16:52:08Z</time>
      </trkpt>
      <trkpt lat="44.13046" lon="6.99667">
        <ele>1976</ele>
        <time>2021-08-08T16:52:27Z</time>
      </trkpt>
      <trkpt lat="44.13028" lon="6.9969">
        <ele>1980</ele>
        <time>2021-08-08T16:52:47Z</time>
      </trkpt>
      <trkpt lat="44.13023" lon="6.99694">
        <ele>1981</ele>
        <time>2021-08-08T16:52:51Z</time>
      </trkpt>
      <trkpt lat="44.1301" lon="6.99711">
        <ele>1986</ele>
        <time>2021-08-08T16:53:06Z</time>
      </trkpt>
      <trkpt lat="44.1298" lon="6.99729">
        <ele>1988</ele>
        <time>2021-08-08T16:53:32Z</time>
      </trkpt>
      <trkpt lat="44.12977" lon="6.99733">
        <ele>1989</ele>
        <time>2021-08-08T16:53:35Z</time>
      </trkpt>
      <trkpt lat="44.12965" lon="6.99741">
        <ele>1988</ele>
        <time>2021-08-08T16:53:46Z</time>
      </trkpt>
      <trkpt lat="44.12953" lon="6.99754">
        <ele>1989</ele>
        <time>2021-08-08T16:53:58Z</time>
      </trkpt>
      <trkpt lat="44.12939" lon="6.99776">
        <ele>1991</ele>
        <time>2021-08-08T16:54:15Z</time>
      </trkpt>
      <trkpt lat="44.12935" lon="6.99785">
        <ele>1992</ele>
        <time>2021-08-08T16:54:21Z</time>
      </trkpt>
      <trkpt lat="44.12931" lon="6.99806">
        <ele>1997</ele>
        <time>2021-08-08T16:54:33Z</time>
      </trkpt>
      <trkpt lat="44.12925" lon="6.99819">
        <ele>1999</ele>
        <time>2021-08-08T16:54:42Z</time>
      </trkpt>
      <trkpt lat="44.12916" lon="6.99833">
        <ele>2000</ele>
        <time>2021-08-08T16:54:53Z</time>
      </trkpt>
      <trkpt lat="44.12914" lon="6.9987">
        <ele>2001</ele>
        <time>2021-08-08T16:55:14Z</time>
      </trkpt>
      <trkpt lat="44.12911" lon="6.99874">
        <ele>1998</ele>
        <time>2021-08-08T16:55:18Z</time>
      </trkpt>
      <trkpt lat="44.12902" lon="6.999">
        <ele>1992</ele>
        <time>2021-08-08T16:55:34Z</time>
      </trkpt>
      <trkpt lat="44.12899" lon="6.99917">
        <ele>1991</ele>
        <time>2021-08-08T16:55:44Z</time>
      </trkpt>
      <trkpt lat="44.12901" lon="6.99942">
        <ele>1989</ele>
        <time>2021-08-08T16:55:59Z</time>
      </trkpt>
      <trkpt lat="44.12913" lon="6.99976">
        <ele>1992</ele>
        <time>2021-08-08T16:56:21Z</time>
      </trkpt>
      <trkpt lat="44.12915" lon="6.9999">
        <ele>1991</ele>
        <time>2021-08-08T16:56:29Z</time>
      </trkpt>
      <trkpt lat="44.12914" lon="6.99994">
        <ele>1989</ele>
        <time>2021-08-08T16:56:31Z</time>
      </trkpt>
      <trkpt lat="44.12917" lon="7">
        <ele>1990</ele>
        <time>2021-08-08T16:56:35Z</time>
      </trkpt>
      <trkpt lat="44.12923" lon="7.0003">
        <ele>1985</ele>
        <time>2021-08-08T16:56:53Z</time>
      </trkpt>
      <trkpt lat="44.12927" lon="7.00047">
        <ele>1981</ele>
        <time>2021-08-08T16:57:04Z</time>
      </trkpt>
      <trkpt lat="44.12929" lon="7.00066">
        <ele>1977</ele>
        <time>2021-08-08T16:57:15Z</time>
      </trkpt>
      <trkpt lat="44.12922" lon="7.00089">
        <ele>1974</ele>
        <time>2021-08-08T16:57:29Z</time>
      </trkpt>
      <trkpt lat="44.12923" lon="7.00102">
        <ele>1974</ele>
        <time>2021-08-08T16:57:36Z</time>
      </trkpt>
      <trkpt lat="44.12925" lon="7.00114">
        <ele>1973</ele>
        <time>2021-08-08T16:57:44Z</time>
      </trkpt>
      <trkpt lat="44.12914" lon="7.00139">
        <ele>1974</ele>
        <time>2021-08-08T16:58:00Z</time>
      </trkpt>
      <trkpt lat="44.12898" lon="7.00171">
        <ele>1971</ele>
        <time>2021-08-08T16:58:23Z</time>
      </trkpt>
      <trkpt lat="44.12874" lon="7.00213">
        <ele>1978</ele>
        <time>2021-08-08T16:58:54Z</time>
      </trkpt>
      <trkpt lat="44.12869" lon="7.00218">
        <ele>1979</ele>
        <time>2021-08-08T16:58:59Z</time>
      </trkpt>
      <trkpt lat="44.12859" lon="7.00236">
        <ele>1985</ele>
        <time>2021-08-08T16:59:12Z</time>
      </trkpt>
      <trkpt lat="44.12845" lon="7.0025">
        <ele>1992</ele>
        <time>2021-08-08T16:59:25Z</time>
      </trkpt>
      <trkpt lat="44.12835" lon="7.00256">
        <ele>1993</ele>
        <time>2021-08-08T16:59:34Z</time>
      </trkpt>
      <trkpt lat="44.12797" lon="7.00272">
        <ele>1977</ele>
        <time>2021-08-08T17:00:06Z</time>
      </trkpt>
      <trkpt lat="44.12777" lon="7.00289">
        <ele>1970</ele>
        <time>2021-08-08T17:00:25Z</time>
      </trkpt>
      <trkpt lat="44.12796" lon="7.00376">
        <ele>1971</ele>
        <time>2021-08-08T17:01:17Z</time>
      </trkpt>
      <trkpt lat="44.12807" lon="7.00442">
        <ele>1961</ele>
        <time>2021-08-08T17:01:56Z</time>
      </trkpt>
      <trkpt lat="44.12804" lon="7.00455">
        <ele>1959</ele>
        <time>2021-08-08T17:02:04Z</time>
      </trkpt>
      <trkpt lat="44.12805" lon="7.0047">
        <ele>1958</ele>
        <time>2021-08-08T17:02:12Z</time>
      </trkpt>
      <trkpt lat="44.12813" lon="7.00482">
        <ele>1957</ele>
        <time>2021-08-08T17:02:22Z</time>
      </trkpt>
      <trkpt lat="44.12803" lon="7.00558">
        <ele>1966</ele>
        <time>2021-08-08T17:03:06Z</time>
      </trkpt>
      <trkpt lat="44.12793" lon="7.00582">
        <ele>1972</ele>
        <time>2021-08-08T17:03:22Z</time>
      </trkpt>
      <trkpt lat="44.12811" lon="7.00614">
        <ele>1974</ele>
        <time>2021-08-08T17:03:46Z</time>
      </trkpt>
      <trkpt lat="44.12821" lon="7.0067">
        <ele>1982</ele>
        <time>2021-08-08T17:04:19Z</time>
      </trkpt>
      <trkpt lat="44.12834" lon="7.00691">
        <ele>1985</ele>
        <time>2021-08-08T17:04:35Z</time>
      </trkpt>
      <trkpt lat="44.12854" lon="7.0075">
        <ele>1985</ele>
        <time>2021-08-08T17:05:12Z</time>
      </trkpt>
      <trkpt lat="44.12841" lon="7.00727">
        <ele>1986</ele>
        <time>2021-08-08T17:05:29Z</time>
      </trkpt>
      <trkpt lat="44.12821" lon="7.0073">
        <ele>1988</ele>
        <time>2021-08-08T17:05:45Z</time>
      </trkpt>
      <trkpt lat="44.1281" lon="7.00722">
        <ele>1985</ele>
        <time>2021-08-08T17:05:55Z</time>
      </trkpt>
      <trkpt lat="44.12801" lon="7.0068">
        <ele>1981</ele>
        <time>2021-08-08T17:06:20Z</time>
      </trkpt>
      <trkpt lat="44.12761" lon="7.00622">
        <ele>1977</ele>
        <time>2021-08-08T17:07:06Z</time>
      </trkpt>
      <trkpt lat="44.12736" lon="7.00628">
        <ele>1973</ele>
        <time>2021-08-08T17:07:27Z</time>
      </trkpt>
      <trkpt lat="44.12725" lon="7.00625">
        <ele>1970</ele>
        <time>2021-08-08T17:07:36Z</time>
      </trkpt>
      <trkpt lat="44.12711" lon="7.00597">
        <ele>1967</ele>
        <time>2021-08-08T17:07:55Z</time>
      </trkpt>
      <trkpt lat="44.1268" lon="7.0058">
        <ele>1959</ele>
        <time>2021-08-08T17:08:22Z</time>
      </trkpt>
      <trkpt lat="44.12641" lon="7.00572">
        <ele>1949</ele>
        <time>2021-08-08T17:08:54Z</time>
      </trkpt>
      <trkpt lat="44.12623" lon="7.0059">
        <ele>1947</ele>
        <time>2021-08-08T17:09:11Z</time>
      </trkpt>
      <trkpt lat="44.12618" lon="7.00641">
        <ele>1944</ele>
        <time>2021-08-08T17:09:41Z</time>
      </trkpt>
      <trkpt lat="44.12598" lon="7.00661">
        <ele>1940</ele>
        <time>2021-08-08T17:10:01Z</time>
      </trkpt>
      <trkpt lat="44.12567" lon="7.00666">
        <ele>1942</ele>
        <time>2021-08-08T17:10:26Z</time>
      </trkpt>
      <trkpt lat="44.12533" lon="7.00649">
        <ele>1949</ele>
        <time>2021-08-08T17:10:55Z</time>
      </trkpt>
      <trkpt lat="44.12522" lon="7.00654">
        <ele>1951</ele>
        <time>2021-08-08T17:11:04Z</time>
      </trkpt>
      <trkpt lat="44.1252" lon="7.00648">
        <ele>1951</ele>
        <time>2021-08-08T17:11:08Z</time>
      </trkpt>
      <trkpt lat="44.1251" lon="7.00655">
        <ele>1954</ele>
        <time>2021-08-08T17:11:17Z</time>
      </trkpt>
      <trkpt lat="44.12459" lon="7.00647">
        <ele>1965</ele>
        <time>2021-08-08T17:11:58Z</time>
      </trkpt>
      <trkpt lat="44.12427" lon="7.00651">
        <ele>1972</ele>
        <time>2021-08-08T17:12:23Z</time>
      </trkpt>
      <trkpt lat="44.12388" lon="7.00626">
        <ele>1973</ele>
        <time>2021-08-08T17:12:58Z</time>
      </trkpt>
      <trkpt lat="44.12348" lon="7.00615">
        <ele>1974</ele>
        <time>2021-08-08T17:13:30Z</time>
      </trkpt>
      <trkpt lat="44.12288" lon="7.0061">
        <ele>1977</ele>
        <time>2021-08-08T17:14:19Z</time>
      </trkpt>
      <trkpt lat="44.12272" lon="7.00615">
        <ele>1977</ele>
        <time>2021-08-08T17:14:32Z</time>
      </trkpt>
      <trkpt lat="44.12258" lon="7.00616">
        <ele>1977</ele>
        <time>2021-08-08T17:14:43Z</time>
      </trkpt>
      <trkpt lat="44.12246" lon="7.00589">
        <ele>1981</ele>
        <time>2021-08-08T17:15:01Z</time>
      </trkpt>
      <trkpt lat="44.1222" lon="7.00584">
        <ele>1980</ele>
        <time>2021-08-08T17:15:22Z</time>
      </trkpt>
      <trkpt lat="44.12184" lon="7.00603">
        <ele>1978</ele>
        <time>2021-08-08T17:15:53Z</time>
      </trkpt>
      <trkpt lat="44.12162" lon="7.0062">
        <ele>1979</ele>
        <time>2021-08-08T17:16:13Z</time>
      </trkpt>
      <trkpt lat="44.12147" lon="7.00646">
        <ele>1981</ele>
        <time>2021-08-08T17:16:32Z</time>
      </trkpt>
      <trkpt lat="44.12127" lon="7.00657">
        <ele>1982</ele>
        <time>2021-08-08T17:16:49Z</time>
      </trkpt>
      <trkpt lat="44.12111" lon="7.00683">
        <ele>1981</ele>
        <time>2021-08-08T17:17:09Z</time>
      </trkpt>
      <trkpt lat="44.12087" lon="7.00704">
        <ele>1981</ele>
        <time>2021-08-08T17:17:32Z</time>
      </trkpt>
      <trkpt lat="44.12041" lon="7.00734">
        <ele>1976</ele>
        <time>2021-08-08T17:18:13Z</time>
      </trkpt>
      <trkpt lat="44.12034" lon="7.0075">
        <ele>1976</ele>
        <time>2021-08-08T17:18:23Z</time>
      </trkpt>
      <trkpt lat="44.12016" lon="7.00771">
        <ele>1974</ele>
        <time>2021-08-08T17:18:42Z</time>
      </trkpt>
      <trkpt lat="44.11988" lon="7.00792">
        <ele>1974</ele>
        <time>2021-08-08T17:19:08Z</time>
      </trkpt>
      <trkpt lat="44.11965" lon="7.00817">
        <ele>1975</ele>
        <time>2021-08-08T17:19:31Z</time>
      </trkpt>
      <trkpt lat="44.11939" lon="7.00876">
        <ele>1974</ele>
        <time>2021-08-08T17:20:11Z</time>
      </trkpt>
      <trkpt lat="44.11932" lon="7.00914">
        <ele>1974</ele>
        <time>2021-08-08T17:20:33Z</time>
      </trkpt>
      <trkpt lat="44.11922" lon="7.00927">
        <ele>1974</ele>
        <time>2021-08-08T17:20:44Z</time>
      </trkpt>
      <trkpt lat="44.119" lon="7.00964">
        <ele>1968</ele>
        <time>2021-08-08T17:21:12Z</time>
      </trkpt>
      <trkpt lat="44.11917" lon="7.00913">
        <ele>1977</ele>
        <time>2021-08-08T17:21:44Z</time>
      </trkpt>
      <trkpt lat="44.11893" lon="7.00847">
        <ele>1974</ele>
        <time>2021-08-08T17:22:27Z</time>
      </trkpt>
      <trkpt lat="44.11877" lon="7.008">
        <ele>1969</ele>
        <time>2021-08-08T17:22:57Z</time>
      </trkpt>
      <trkpt lat="44.1187" lon="7.00776">
        <ele>1966</ele>
        <time>2021-08-08T17:23:11Z</time>
      </trkpt>
      <trkpt lat="44.11869" lon="7.00756">
        <ele>1964</ele>
        <time>2021-08-08T17:23:23Z</time>
      </trkpt>
      <trkpt lat="44.11864" lon="7.00744">
        <ele>1961</ele>
        <time>2021-08-08T17:23:31Z</time>
      </trkpt>
      <trkpt lat="44.11853" lon="7.00728">
        <ele>1956</ele>
        <time>2021-08-08T17:23:44Z</time>
      </trkpt>
      <trkpt lat="44.11841" lon="7.00723">
        <ele>1952</ele>
        <time>2021-08-08T17:23:54Z</time>
      </trkpt>
      <trkpt lat="44.1183" lon="7.00717">
        <ele>1950</ele>
        <time>2021-08-08T17:24:03Z</time>
      </trkpt>
      <trkpt lat="44.11819" lon="7.00704">
        <ele>1947</ele>
        <time>2021-08-08T17:24:15Z</time>
      </trkpt>
      <trkpt lat="44.11804" lon="7.00691">
        <ele>1944</ele>
        <time>2021-08-08T17:24:29Z</time>
      </trkpt>
      <trkpt lat="44.11785" lon="7.00684">
        <ele>1943</ele>
        <time>2021-08-08T17:24:45Z</time>
      </trkpt>
      <trkpt lat="44.11741" lon="7.00654">
        <ele>1934</ele>
        <time>2021-08-08T17:25:24Z</time>
      </trkpt>
      <trkpt lat="44.11691" lon="7.00624">
        <ele>1921</ele>
        <time>2021-08-08T17:26:07Z</time>
      </trkpt>
      <trkpt lat="44.11687" lon="7.00623">
        <ele>1921</ele>
        <time>2021-08-08T17:26:11Z</time>
      </trkpt>
      <trkpt lat="44.11685" lon="7.00641">
        <ele>1923</ele>
        <time>2021-08-08T17:26:21Z</time>
      </trkpt>
      <trkpt lat="44.11681" lon="7.0065">
        <ele>1923</ele>
        <time>2021-08-08T17:26:27Z</time>
      </trkpt>
      <trkpt lat="44.11669" lon="7.00712">
        <ele>1922</ele>
        <time>2021-08-08T17:27:04Z</time>
      </trkpt>
      <trkpt lat="44.11673" lon="7.00727">
        <ele>1923</ele>
        <time>2021-08-08T17:27:13Z</time>
      </trkpt>
      <trkpt lat="44.11675" lon="7.00763">
        <ele>1923</ele>
        <time>2021-08-08T17:27:34Z</time>
      </trkpt>
      <trkpt lat="44.1167" lon="7.00784">
        <ele>1920</ele>
        <time>2021-08-08T17:27:47Z</time>
      </trkpt>
      <trkpt lat="44.1167" lon="7.00796">
        <ele>1919</ele>
        <time>2021-08-08T17:27:54Z</time>
      </trkpt>
      <trkpt lat="44.11672" lon="7.00819">
        <ele>1919</ele>
        <time>2021-08-08T17:28:07Z</time>
      </trkpt>
      <trkpt lat="44.11671" lon="7.00827">
        <ele>1918</ele>
        <time>2021-08-08T17:28:12Z</time>
      </trkpt>
      <trkpt lat="44.11676" lon="7.00846">
        <ele>1919</ele>
        <time>2021-08-08T17:28:23Z</time>
      </trkpt>
      <trkpt lat="44.11673" lon="7.0085">
        <ele>1917</ele>
        <time>2021-08-08T17:28:27Z</time>
      </trkpt>
      <trkpt lat="44.11674" lon="7.00863">
        <ele>1917</ele>
        <time>2021-08-08T17:28:34Z</time>
      </trkpt>
      <trkpt lat="44.11679" lon="7.00893">
        <ele>1917</ele>
        <time>2021-08-08T17:28:52Z</time>
      </trkpt>
      <trkpt lat="44.11678" lon="7.00909">
        <ele>1915</ele>
        <time>2021-08-08T17:29:01Z</time>
      </trkpt>
      <trkpt lat="44.11679" lon="7.00925">
        <ele>1914</ele>
        <time>2021-08-08T17:29:10Z</time>
      </trkpt>
      <trkpt lat="44.11682" lon="7.00937">
        <ele>1915</ele>
        <time>2021-08-08T17:29:18Z</time>
      </trkpt>
      <trkpt lat="44.11682" lon="7.00959">
        <ele>1912</ele>
        <time>2021-08-08T17:29:30Z</time>
      </trkpt>
      <trkpt lat="44.11685" lon="7.00978">
        <ele>1912</ele>
        <time>2021-08-08T17:29:41Z</time>
      </trkpt>
      <trkpt lat="44.11684" lon="7.01005">
        <ele>1909</ele>
        <time>2021-08-08T17:29:57Z</time>
      </trkpt>
      <trkpt lat="44.11689" lon="7.01023">
        <ele>1910</ele>
        <time>2021-08-08T17:30:08Z</time>
      </trkpt>
      <trkpt lat="44.11692" lon="7.01027">
        <ele>1911</ele>
        <time>2021-08-08T17:30:11Z</time>
      </trkpt>
      <trkpt lat="44.11693" lon="7.01052">
        <ele>1910</ele>
        <time>2021-08-08T17:30:26Z</time>
      </trkpt>
      <trkpt lat="44.11679" lon="7.01083">
        <ele>1907</ele>
        <time>2021-08-08T17:30:47Z</time>
      </trkpt>
      <trkpt lat="44.11622" lon="7.01126">
        <ele>1899</ele>
        <time>2021-08-08T17:31:39Z</time>
      </trkpt>
      <trkpt lat="44.11601" lon="7.01149">
        <ele>1900</ele>
        <time>2021-08-08T17:32:00Z</time>
      </trkpt>
      <trkpt lat="44.11574" lon="7.01185">
        <ele>1899</ele>
        <time>2021-08-08T17:32:30Z</time>
      </trkpt>
      <trkpt lat="44.11556" lon="7.01213">
        <ele>1895</ele>
        <time>2021-08-08T17:32:52Z</time>
      </trkpt>
      <trkpt lat="44.11545" lon="7.01221">
        <ele>1894</ele>
        <time>2021-08-08T17:33:02Z</time>
      </trkpt>
      <trkpt lat="44.11484" lon="7.01337">
        <ele>1895</ele>
        <time>2021-08-08T17:34:24Z</time>
      </trkpt>
      <trkpt lat="44.11476" lon="7.0136">
        <ele>1894</ele>
        <time>2021-08-08T17:34:39Z</time>
      </trkpt>
      <trkpt lat="44.11465" lon="7.01427">
        <ele>1894</ele>
        <time>2021-08-08T17:35:19Z</time>
      </trkpt>
      <trkpt lat="44.11464" lon="7.01476">
        <ele>1896</ele>
        <time>2021-08-08T17:35:47Z</time>
      </trkpt>
      <trkpt lat="44.11465" lon="7.01489">
        <ele>1896</ele>
        <time>2021-08-08T17:35:54Z</time>
      </trkpt>
      <trkpt lat="44.11467" lon="7.01498">
        <ele>1897</ele>
        <time>2021-08-08T17:36:00Z</time>
      </trkpt>
      <trkpt lat="44.11469" lon="7.01514">
        <ele>1898</ele>
        <time>2021-08-08T17:36:09Z</time>
      </trkpt>
      <trkpt lat="44.11469" lon="7.01562">
        <ele>1899</ele>
        <time>2021-08-08T17:36:37Z</time>
      </trkpt>
      <trkpt lat="44.11464" lon="7.01603">
        <ele>1899</ele>
        <time>2021-08-08T17:37:00Z</time>
      </trkpt>
      <trkpt lat="44.11457" lon="7.01618">
        <ele>1898</ele>
        <time>2021-08-08T17:37:11Z</time>
      </trkpt>
      <trkpt lat="44.11452" lon="7.01621">
        <ele>1897</ele>
        <time>2021-08-08T17:37:15Z</time>
      </trkpt>
      <trkpt lat="44.11447" lon="7.01622">
        <ele>1896</ele>
        <time>2021-08-08T17:37:19Z</time>
      </trkpt>
      <trkpt lat="44.1144" lon="7.01621">
        <ele>1895</ele>
        <time>2021-08-08T17:37:25Z</time>
      </trkpt>
      <trkpt lat="44.11435" lon="7.01633">
        <ele>1894</ele>
        <time>2021-08-08T17:37:33Z</time>
      </trkpt>
      <trkpt lat="44.11425" lon="7.01645">
        <ele>1893</ele>
        <time>2021-08-08T17:37:43Z</time>
      </trkpt>
      <trkpt lat="44.11409" lon="7.01651">
        <ele>1891</ele>
        <time>2021-08-08T17:37:57Z</time>
      </trkpt>
      <trkpt lat="44.11398" lon="7.01649">
        <ele>1890</ele>
        <time>2021-08-08T17:38:05Z</time>
      </trkpt>
      <trkpt lat="44.1139" lon="7.01654">
        <ele>1890</ele>
        <time>2021-08-08T17:38:12Z</time>
      </trkpt>
      <trkpt lat="44.1138" lon="7.01653">
        <ele>1889</ele>
        <time>2021-08-08T17:38:21Z</time>
      </trkpt>
      <trkpt lat="44.11356" lon="7.01659">
        <ele>1889</ele>
        <time>2021-08-08T17:38:40Z</time>
      </trkpt>
      <trkpt lat="44.11338" lon="7.01665">
        <ele>1890</ele>
        <time>2021-08-08T17:38:55Z</time>
      </trkpt>
      <trkpt lat="44.11324" lon="7.01671">
        <ele>1891</ele>
        <time>2021-08-08T17:39:07Z</time>
      </trkpt>
      <trkpt lat="44.11295" lon="7.01686">
        <ele>1896</ele>
        <time>2021-08-08T17:39:31Z</time>
      </trkpt>
      <trkpt lat="44.11288" lon="7.01686">
        <ele>1897</ele>
        <time>2021-08-08T17:39:37Z</time>
      </trkpt>
      <trkpt lat="44.11265" lon="7.01678">
        <ele>1900</ele>
        <time>2021-08-08T17:39:56Z</time>
      </trkpt>
      <trkpt lat="44.11239" lon="7.01707">
        <ele>1909</ele>
        <time>2021-08-08T17:40:23Z</time>
      </trkpt>
      <trkpt lat="44.11202" lon="7.01746">
        <ele>1923</ele>
        <time>2021-08-08T17:41:00Z</time>
      </trkpt>
      <trkpt lat="44.11178" lon="7.01763">
        <ele>1929</ele>
        <time>2021-08-08T17:41:21Z</time>
      </trkpt>
      <trkpt lat="44.11154" lon="7.01801">
        <ele>1931</ele>
        <time>2021-08-08T17:41:50Z</time>
      </trkpt>
      <trkpt lat="44.11104" lon="7.01812">
        <ele>1938</ele>
        <time>2021-08-08T17:42:31Z</time>
      </trkpt>
      <trkpt lat="44.11091" lon="7.01835">
        <ele>1941</ele>
        <time>2021-08-08T17:42:48Z</time>
      </trkpt>
      <trkpt lat="44.11043" lon="7.01827">
        <ele>1943</ele>
        <time>2021-08-08T17:43:26Z</time>
      </trkpt>
      <trkpt lat="44.11022" lon="7.01834">
        <ele>1944</ele>
        <time>2021-08-08T17:43:44Z</time>
      </trkpt>
      <trkpt lat="44.10978" lon="7.01878">
        <ele>1935</ele>
        <time>2021-08-08T17:44:27Z</time>
      </trkpt>
      <trkpt lat="44.10966" lon="7.01885">
        <ele>1933</ele>
        <time>2021-08-08T17:44:38Z</time>
      </trkpt>
      <trkpt lat="44.10952" lon="7.01886">
        <ele>1932</ele>
        <time>2021-08-08T17:44:49Z</time>
      </trkpt>
      <trkpt lat="44.10922" lon="7.01896">
        <ele>1929</ele>
        <time>2021-08-08T17:45:13Z</time>
      </trkpt>
      <trkpt lat="44.10895" lon="7.01918">
        <ele>1924</ele>
        <time>2021-08-08T17:45:39Z</time>
      </trkpt>
      <trkpt lat="44.1086" lon="7.01898">
        <ele>1915</ele>
        <time>2021-08-08T17:46:09Z</time>
      </trkpt>
      <trkpt lat="44.10845" lon="7.01866">
        <ele>1909</ele>
        <time>2021-08-08T17:46:31Z</time>
      </trkpt>
      <trkpt lat="44.1084" lon="7.01835">
        <ele>1906</ele>
        <time>2021-08-08T17:46:49Z</time>
      </trkpt>
      <trkpt lat="44.10821" lon="7.01796">
        <ele>1897</ele>
        <time>2021-08-08T17:47:16Z</time>
      </trkpt>
      <trkpt lat="44.10778" lon="7.01739">
        <ele>1883</ele>
        <time>2021-08-08T17:48:04Z</time>
      </trkpt>
      <trkpt lat="44.10763" lon="7.01726">
        <ele>1879</ele>
        <time>2021-08-08T17:48:18Z</time>
      </trkpt>
      <trkpt lat="44.10723" lon="7.01724">
        <ele>1867</ele>
        <time>2021-08-08T17:48:50Z</time>
      </trkpt>
      <trkpt lat="44.10658" lon="7.01695">
        <ele>1844</ele>
        <time>2021-08-08T17:49:45Z</time>
      </trkpt>
      <trkpt lat="44.10623" lon="7.01654">
        <ele>1828</ele>
        <time>2021-08-08T17:50:21Z</time>
      </trkpt>
      <trkpt lat="44.10632" lon="7.01587">
        <ele>1819</ele>
        <time>2021-08-08T17:51:00Z</time>
      </trkpt>
      <trkpt lat="44.1063" lon="7.0155">
        <ele>1812</ele>
        <time>2021-08-08T17:51:22Z</time>
      </trkpt>
      <trkpt lat="44.10574" lon="7.01422">
        <ele>1778</ele>
        <time>2021-08-08T17:52:48Z</time>
      </trkpt>
      <trkpt lat="44.10548" lon="7.01387">
        <ele>1767</ele>
        <time>2021-08-08T17:53:17Z</time>
      </trkpt>
      <trkpt lat="44.10507" lon="7.01365">
        <ele>1755</ele>
        <time>2021-08-08T17:53:52Z</time>
      </trkpt>
      <trkpt lat="44.10438" lon="7.01363">
        <ele>1730</ele>
        <time>2021-08-08T17:54:47Z</time>
      </trkpt>
      <trkpt lat="44.104" lon="7.01381">
        <ele>1717</ele>
        <time>2021-08-08T17:55:19Z</time>
      </trkpt>
      <trkpt lat="44.10355" lon="7.01334">
        <ele>1712</ele>
        <time>2021-08-08T17:56:04Z</time>
      </trkpt>
      <trkpt lat="44.10354" lon="7.0139">
        <ele>1707</ele>
        <time>2021-08-08T17:56:37Z</time>
      </trkpt>
      <trkpt lat="44.1036" lon="7.01408">
        <ele>1707</ele>
        <time>2021-08-08T17:56:48Z</time>
      </trkpt>
      <trkpt lat="44.10377" lon="7.01425">
        <ele>1710</ele>
        <time>2021-08-08T17:57:05Z</time>
      </trkpt>
      <trkpt lat="44.10385" lon="7.01439">
        <ele>1710</ele>
        <time>2021-08-08T17:57:15Z</time>
      </trkpt>
      <trkpt lat="44.10392" lon="7.0147">
        <ele>1710</ele>
        <time>2021-08-08T17:57:34Z</time>
      </trkpt>
      <trkpt lat="44.10389" lon="7.01492">
        <ele>1707</ele>
        <time>2021-08-08T17:57:47Z</time>
      </trkpt>
      <trkpt lat="44.10327" lon="7.0156">
        <ele>1698</ele>
        <time>2021-08-08T17:58:50Z</time>
      </trkpt>
      <trkpt lat="44.10316" lon="7.01584">
        <ele>1697</ele>
        <time>2021-08-08T17:59:06Z</time>
      </trkpt>
      <trkpt lat="44.10295" lon="7.01662">
        <ele>1704</ele>
        <time>2021-08-08T17:59:54Z</time>
      </trkpt>
      <trkpt lat="44.10283" lon="7.01688">
        <ele>1702</ele>
        <time>2021-08-08T18:00:12Z</time>
      </trkpt>
      <trkpt lat="44.10259" lon="7.01723">
        <ele>1697</ele>
        <time>2021-08-08T18:00:40Z</time>
      </trkpt>
      <trkpt lat="44.10227" lon="7.01756">
        <ele>1688</ele>
        <time>2021-08-08T18:01:12Z</time>
      </trkpt>
      <trkpt lat="44.10187" lon="7.01817">
        <ele>1680</ele>
        <time>2021-08-08T18:01:59Z</time>
      </trkpt>
      <trkpt lat="44.10169" lon="7.01835">
        <ele>1677</ele>
        <time>2021-08-08T18:02:17Z</time>
      </trkpt>
      <trkpt lat="44.10153" lon="7.0186">
        <ele>1669</ele>
        <time>2021-08-08T18:02:36Z</time>
      </trkpt>
      <trkpt lat="44.10153" lon="7.01873">
        <ele>1667</ele>
        <time>2021-08-08T18:02:44Z</time>
      </trkpt>
      <trkpt lat="44.1016" lon="7.01888">
        <ele>1667</ele>
        <time>2021-08-08T18:02:54Z</time>
      </trkpt>
      <trkpt lat="44.10195" lon="7.01897">
        <ele>1677</ele>
        <time>2021-08-08T18:03:22Z</time>
      </trkpt>
      <trkpt lat="44.10198" lon="7.01916">
        <ele>1675</ele>
        <time>2021-08-08T18:03:34Z</time>
      </trkpt>
      <trkpt lat="44.10192" lon="7.01934">
        <ele>1671</ele>
        <time>2021-08-08T18:03:45Z</time>
      </trkpt>
      <trkpt lat="44.1019" lon="7.01957">
        <ele>1667</ele>
        <time>2021-08-08T18:03:58Z</time>
      </trkpt>
      <trkpt lat="44.10172" lon="7.02001">
        <ele>1656</ele>
        <time>2021-08-08T18:04:27Z</time>
      </trkpt>
      <trkpt lat="44.10183" lon="7.02043">
        <ele>1653</ele>
        <time>2021-08-08T18:04:53Z</time>
      </trkpt>
      <trkpt lat="44.10195" lon="7.02063">
        <ele>1652</ele>
        <time>2021-08-08T18:05:08Z</time>
      </trkpt>
      <trkpt lat="44.1021" lon="7.02072">
        <ele>1652</ele>
        <time>2021-08-08T18:05:21Z</time>
      </trkpt>
      <trkpt lat="44.10221" lon="7.02075">
        <ele>1653</ele>
        <time>2021-08-08T18:05:30Z</time>
      </trkpt>
      <trkpt lat="44.10224" lon="7.02082">
        <ele>1652</ele>
        <time>2021-08-08T18:05:35Z</time>
      </trkpt>
      <trkpt lat="44.10206" lon="7.02085">
        <ele>1650</ele>
        <time>2021-08-08T18:05:49Z</time>
      </trkpt>
      <trkpt lat="44.10216" lon="7.02102">
        <ele>1652</ele>
        <time>2021-08-08T18:06:02Z</time>
      </trkpt>
      <trkpt lat="44.10216" lon="7.02125">
        <ele>1654</ele>
        <time>2021-08-08T18:06:15Z</time>
      </trkpt>
      <trkpt lat="44.10193" lon="7.02146">
        <ele>1654</ele>
        <time>2021-08-08T18:06:37Z</time>
      </trkpt>
      <trkpt lat="44.10176" lon="7.02155">
        <ele>1654</ele>
        <time>2021-08-08T18:06:52Z</time>
      </trkpt>
      <trkpt lat="44.10151" lon="7.0216">
        <ele>1654</ele>
        <time>2021-08-08T18:07:12Z</time>
      </trkpt>
      <trkpt lat="44.10134" lon="7.02168">
        <ele>1654</ele>
        <time>2021-08-08T18:07:26Z</time>
      </trkpt>
      <trkpt lat="44.10127" lon="7.02178">
        <ele>1657</ele>
        <time>2021-08-08T18:07:34Z</time>
      </trkpt>
      <trkpt lat="44.1012" lon="7.02196">
        <ele>1662</ele>
        <time>2021-08-08T18:07:46Z</time>
      </trkpt>
      <trkpt lat="44.10108" lon="7.02219">
        <ele>1667</ele>
        <time>2021-08-08T18:08:02Z</time>
      </trkpt>
      <trkpt lat="44.10083" lon="7.02239">
        <ele>1669</ele>
        <time>2021-08-08T18:08:26Z</time>
      </trkpt>
      <trkpt lat="44.10064" lon="7.02247">
        <ele>1673</ele>
        <time>2021-08-08T18:08:41Z</time>
      </trkpt>
      <trkpt lat="44.10045" lon="7.02266">
        <ele>1675</ele>
        <time>2021-08-08T18:09:00Z</time>
      </trkpt>
      <trkpt lat="44.10037" lon="7.0227">
        <ele>1676</ele>
        <time>2021-08-08T18:09:07Z</time>
      </trkpt>
      <trkpt lat="44.10032" lon="7.02278">
        <ele>1676</ele>
        <time>2021-08-08T18:09:13Z</time>
      </trkpt>
      <trkpt lat="44.10024" lon="7.023">
        <ele>1675</ele>
        <time>2021-08-08T18:09:27Z</time>
      </trkpt>
      <trkpt lat="44.10021" lon="7.02287">
        <ele>1676</ele>
        <time>2021-08-08T18:09:35Z</time>
      </trkpt>
    </trkseg>
  </trk>
</gpx>